CYNL

METAR CYNL 052100Z AUTO 34006G17KT 9SM CLR 05/M11 A3025 RMK AO1 SLP270
METAR
LOCATION
CYNL
DATE - TIME
052100Z
WIND
340 TRUE @ 6 KNOTS GUSTS 17 KNOTS
VISIBILITY
9SM
RUNWAY VISUAL RANGE
NOT REPORTED
WEATHER
CLOUDINESS
CLR
TEMP / DEWPOINT
5 ºC / -11 ºC
ALTIMETER
30.25 in. Hg
RECENT WEATHER
NOT REPORTED
WIND SHEAR
NOT REPORTED
REMARKS
RMK AO1 SLP270
SEA LEVEL PRESSURE: hPa

CYNL

METAR CYNL 052000Z AUTO 35010G15KT 9SM CLR 05/M11 A3025 RMK AO1 SLP270
METAR
LOCATION
CYNL
DATE - TIME
052000Z
WIND
350 TRUE @ 10 KNOTS GUSTS 15 KNOTS
VISIBILITY
9SM
RUNWAY VISUAL RANGE
NOT REPORTED
WEATHER
CLOUDINESS
CLR
TEMP / DEWPOINT
5 ºC / -11 ºC
ALTIMETER
30.25 in. Hg
RECENT WEATHER
NOT REPORTED
WIND SHEAR
NOT REPORTED
REMARKS
RMK AO1 SLP270
SEA LEVEL PRESSURE: hPa

CYNL

METAR CYNL 051900Z AUTO 33008G16KT 9SM CLR 05/M10 A3025 RMK AO1 WSHFT (18)46 SLP269
METAR
LOCATION
CYNL
DATE - TIME
051900Z
WIND
330 TRUE @ 8 KNOTS GUSTS 16 KNOTS
VISIBILITY
9SM
RUNWAY VISUAL RANGE
NOT REPORTED
WEATHER
CLOUDINESS
CLR
TEMP / DEWPOINT
5 ºC / -10 ºC
ALTIMETER
30.25 in. Hg
RECENT WEATHER
NOT REPORTED
WIND SHEAR
NOT REPORTED
REMARKS
RMK AO1 WSHFT (18)46 SLP269
SEA LEVEL PRESSURE: hPa

Your time UTC time
 
 
Weather data provided by AXYS Technologies Inc., www.axystechnologies.com
 
Station History